Time;durP1;ratioP1;P1;durP2;ratioP2;P2;SDS_P1;SDS_P2;PMS_P1;PMS_P2;Temp;Humidity;BMP_temperature;BMP_pressure;BME280_temperature;BME280_humidity;BME280_pressure;Samples;Min_cycle;Max_cycle;Signal;HPM_P1;HPM_P2
2023/02/22 00:02:09;;;;;;;57.95;27.65;;;7.80;99.90;;;;;;4997740;28;20513;-94
2023/02/22 00:05:24;;;;;;;51.47;27.65;;;8.30;99.90;;;;;;4996953;28;20114;-94
2023/02/22 00:07:51;;;;;;;54.00;26.70;;;7.30;99.90;;;;;;4997573;28;20109;-94
2023/02/22 00:10:19;;;;;;;56.53;28.25;;;7.80;99.90;;;;;;4997210;28;20026;-94
2023/02/22 00:12:47;;;;;;;50.58;26.75;;;7.70;99.90;;;;;;4996353;28;20026;-94
2023/02/22 00:15:18;;;;;;;49.50;26.92;;;8.10;99.90;;;;;;4997692;28;20032;-94
2023/02/22 00:17:47;;;;;;;52.13;27.88;;;7.30;99.90;;;;;;4998091;28;20022;-93
2023/02/22 00:20:22;;;;;;;53.78;29.38;;;9.00;99.90;;;;;;4997889;28;20038;-93
2023/02/22 00:22:50;;;;;;;56.55;29.08;;;7.80;99.90;;;;;;4996251;28;20025;-95
2023/02/22 00:25:22;;;;;;;52.47;27.23;;;8.30;99.90;;;;;;5012484;28;20049;-94
2023/02/22 00:27:51;;;;;;;50.90;27.33;;;8.20;99.90;;;;;;5006573;28;20027;-93
2023/02/22 00:30:30;;;;;;;54.80;29.00;;;7.50;99.90;;;;;;5007637;28;20018;-94
2023/02/22 00:32:57;;;;;;;51.25;27.98;;;8.90;99.90;;;;;;4998438;28;20113;-94
2023/02/22 00:35:27;;;;;;;54.53;28.83;;;8.40;99.90;;;;;;4997417;28;20102;-94
2023/02/22 00:38:01;;;;;;;55.58;28.42;;;8.10;99.90;;;;;;5003506;28;20065;-94
2023/02/22 00:40:29;;;;;;;55.05;28.77;;;8.10;99.90;;;;;;5016559;28;20046;-93
2023/02/22 00:43:00;;;;;;;51.28;28.27;;;7.60;99.90;;;;;;5016401;28;20529;-93
2023/02/22 00:45:33;;;;;;;53.08;27.58;;;8.60;99.90;;;;;;5016288;28;20037;-94
2023/02/22 00:48:05;;;;;;;48.00;27.88;;;7.50;99.90;;;;;;5016840;28;20116;-94
2023/02/22 00:50:35;;;;;;;49.38;28.02;;;8.60;99.90;;;;;;5015749;28;20026;-94
2023/02/22 00:53:13;;;;;;;51.40;27.88;;;7.70;99.90;;;;;;5016473;28;20532;-94
2023/02/22 00:55:45;;;;;;;52.85;28.08;;;7.80;99.90;;;;;;5015968;28;20036;-96
2023/02/22 00:58:22;;;;;;;52.65;26.63;;;8.00;99.90;;;;;;5016692;28;20021;-94
2023/02/22 01:00:50;;;;;;;49.33;26.50;;;7.70;99.90;;;;;;5016510;28;20030;-94
2023/02/22 01:03:19;;;;;;;50.50;27.58;;;8.00;99.90;;;;;;5015949;28;20030;-94
2023/02/22 01:05:45;;;;;;;53.58;28.92;;;8.00;99.90;;;;;;5015825;28;20025;-95
2023/02/22 01:08:15;;;;;;;49.38;26.80;;;7.40;99.90;;;;;;5015616;28;20029;-95
2023/02/22 01:10:45;;;;;;;49.13;27.05;;;7.40;99.90;;;;;;5015887;28;20109;-95
2023/02/22 01:13:18;;;;;;;51.43;28.73;;;7.50;99.90;;;;;;5015552;28;20026;-95
2023/02/22 01:15:47;;;;;;;52.20;29.15;;;8.00;99.90;;;;;;5015646;28;20034;-94
2023/02/22 01:18:16;;;;;;;49.90;28.08;;;8.70;99.90;;;;;;5015615;28;20046;-93
2023/02/22 01:20:47;;;;;;;49.60;27.13;;;8.00;99.90;;;;;;5015444;28;20069;-94
2023/02/22 01:23:19;;;;;;;51.97;27.48;;;7.50;99.90;;;;;;5015544;28;20022;-94
2023/02/22 01:25:48;;;;;;;48.05;26.85;;;7.20;99.90;;;;;;5015432;28;20029;-93
2023/02/22 01:28:21;;;;;;;52.55;29.48;;;7.90;99.90;;;;;;5015456;28;20022;-94
2023/02/22 01:30:55;;;;;;;49.83;26.83;;;7.40;99.90;;;;;;5015983;28;20485;-95
2023/02/22 01:33:24;;;;;;;55.78;28.25;;;7.50;99.90;;;;;;5015697;28;20378;-95
2023/02/22 01:35:50;;;;;;;52.70;28.13;;;8.10;99.90;;;;;;5015839;28;20040;-94
2023/02/22 01:38:17;;;;;;;50.75;27.27;;;7.40;99.90;;;;;;5013122;28;20049;-94
2023/02/22 01:40:50;;;;;;;53.78;29.05;;;8.00;99.90;;;;;;5015611;28;20045;-94
2023/02/22 01:43:23;;;;;;;48.83;26.83;;;8.10;99.90;;;;;;5015092;28;20026;-93
2023/02/22 01:46:19;;;;;;;56.90;29.50;;;7.30;99.90;;;;;;5015137;28;20036;-94
2023/02/22 01:48:57;;;;;;;57.00;29.42;;;7.30;99.90;;;;;;5015147;28;20469;-94
2023/02/22 01:51:28;;;;;;;55.10;28.75;;;7.30;99.90;;;;;;5014828;28;20049;-93
2023/02/22 01:53:59;;;;;;;57.42;26.95;;;8.20;99.90;;;;;;5015188;28;20046;-94
2023/02/22 01:56:26;;;;;;;58.85;28.77;;;8.30;99.90;;;;;;5014975;28;20025;-94
2023/02/22 01:59:00;;;;;;;61.13;29.30;;;7.90;99.90;;;;;;5015043;28;20096;-93
2023/02/22 02:01:25;;;;;;;52.05;27.92;;;7.80;99.90;;;;;;5014616;28;20528;-93
2023/02/22 02:03:57;;;;;;;55.58;28.40;;;7.60;99.90;;;;;;5014482;28;20022;-94
2023/02/22 02:06:24;;;;;;;61.42;30.08;;;7.70;99.90;;;;;;5015580;28;20026;-94
2023/02/22 02:09:22;;;;;;;61.53;30.33;;;8.00;99.90;;;;;;5020019;28;20029;-92
2023/02/22 02:11:54;;;;;;;59.65;29.20;;;7.20;99.90;;;;;;5017786;28;20030;-93
2023/02/22 02:14:26;;;;;;;64.95;30.15;;;8.60;99.90;;;;;;5019314;28;20034;-94
2023/02/22 02:17:00;;;;;;;62.45;29.70;;;7.70;99.90;;;;;;5017549;28;20044;-94
2023/02/22 02:20:10;;;;;;;60.72;30.20;;;7.70;99.90;;;;;;5014817;28;20026;-92
2023/02/22 02:23:07;;;;;;;58.85;28.58;;;7.20;99.90;;;;;;5005803;28;20044;-91
2023/02/22 02:26:05;;;;;;;61.58;28.85;;;7.60;99.90;;;;;;5014797;28;20068;-94
2023/02/22 02:29:08;;;;;;;67.65;30.25;;;7.20;99.90;;;;;;5014227;28;20080;-92
2023/02/22 02:32:08;;;;;;;66.50;32.72;;;7.10;99.90;;;;;;5014147;28;20034;-93
2023/02/22 02:34:39;;;;;;;63.47;30.33;;;7.20;99.90;;;;;;5014110;28;20029;-92
2023/02/22 02:37:36;;;;;;;65.20;29.92;;;7.70;99.90;;;;;;5014239;28;20022;-93
2023/02/22 02:43:46;;;;;;;59.85;30.67;;;7.20;99.90;;;;;;5013972;28;20113;-94
2023/02/22 02:46:36;;;;;;;64.97;29.73;;;8.00;99.90;;;;;;5006499;28;20052;-93
2023/02/22 02:49:13;;;;;;;65.30;30.73;;;7.20;99.90;;;;;;5014143;28;20466;-94
2023/02/22 02:51:45;;;;;;;66.80;30.05;;;7.20;99.90;;;;;;5014185;28;20038;-93
2023/02/22 02:54:13;;;;;;;61.95;29.40;;;7.80;99.90;;;;;;5014020;28;20032;-91
2023/02/22 02:56:42;;;;;;;71.47;31.55;;;7.70;99.90;;;;;;5013939;28;20372;-93
2023/02/22 03:02:25;;;;;;;68.57;32.03;;;7.20;99.90;;;;;;5056166;23;20061;-94
2023/02/22 03:05:28;;;;;;;71.22;32.47;;;7.10;99.90;;;;;;5033582;28;20030;-94
2023/02/22 03:08:34;;;;;;;75.65;32.47;;;7.00;99.90;;;;;;5033889;28;20026;-92
2023/02/22 03:11:13;;;;;;;76.38;33.85;;;7.70;99.90;;;;;;5033510;28;20032;-93
2023/02/22 03:14:16;;;;;;;73.20;32.50;;;7.80;99.90;;;;;;5033898;28;20032;-92
2023/02/22 03:17:35;;;;;;;78.80;34.30;;;7.10;99.90;;;;;;4982635;28;20029;-92
2023/02/22 03:20:35;;;;;;;79.93;34.13;;;7.00;99.90;;;;;;4994884;28;20037;-91
2023/02/22 03:23:14;;;;;;;78.47;34.80;;;7.00;99.90;;;;;;4996555;28;20030;-92
2023/02/22 03:25:48;;;;;;;82.70;34.65;;;7.60;99.90;;;;;;4996509;28;20273;-92
2023/02/22 03:28:19;;;;;;;84.72;36.55;;;7.10;99.90;;;;;;5020781;28;20029;-96
2023/02/22 03:30:54;;;;;;;87.75;36.95;;;7.60;99.90;;;;;;5037686;28;20032;-91
2023/02/22 03:33:43;;;;;;;93.15;37.85;;;7.40;99.90;;;;;;5037319;28;20021;-93
2023/02/22 03:36:25;;;;;;;83.05;37.17;;;7.40;99.90;;;;;;5036875;28;20025;-91
2023/02/22 03:38:54;;;;;;;90.75;36.88;;;7.50;99.90;;;;;;5037526;28;20021;-94
2023/02/22 03:41:25;;;;;;;89.45;37.70;;;7.40;99.90;;;;;;5037150;28;20033;-96
2023/02/22 03:43:58;;;;;;;;;;;8.30;99.90;;;;;;5037636;28;20529;-92
2023/02/22 03:46:28;;;;;;;96.43;36.85;;;7.00;99.90;;;;;;5004089;28;19939;-95
2023/02/22 03:49:10;;;;;;;83.53;33.17;;;7.00;99.90;;;;;;5041503;23;20438;-93
2023/02/22 03:51:38;;;;;;;91.88;33.88;;;6.90;99.90;;;;;;5059186;22;20061;-92
2023/02/22 03:54:15;;;;;;;85.55;36.28;;;7.30;99.90;;;;;;5015113;28;20062;-94
2023/02/22 03:57:10;;;;;;;88.38;36.53;;;7.10;99.90;;;;;;5031747;28;20026;-92
2023/02/22 03:59:42;;;;;;;80.80;34.50;;;7.30;99.90;;;;;;5023828;28;20086;-93
2023/02/22 04:02:25;;;;;;;79.43;35.03;;;7.90;99.90;;;;;;5028793;28;20381;-94
2023/02/22 04:04:53;;;;;;;83.97;33.15;;;7.40;99.90;;;;;;5016832;28;20049;-94
2023/02/22 04:07:22;;;;;;;79.53;33.22;;;7.30;99.90;;;;;;5015643;28;20105;-95
2023/02/22 04:09:48;;;;;;;83.20;34.75;;;7.20;99.90;;;;;;5016587;28;20041;-93
2023/02/22 04:12:19;;;;;;;78.85;34.03;;;7.40;99.90;;;;;;5016356;28;20478;-93
2023/02/22 04:14:54;;;;;;;78.45;33.60;;;7.10;99.90;;;;;;5016967;28;20022;-94
2023/02/22 04:17:20;;;;;;;81.55;33.28;;;7.20;99.90;;;;;;5016618;28;20022;-93
2023/02/22 04:19:46;;;;;;;72.43;32.17;;;7.30;99.90;;;;;;5016220;28;20049;-93
2023/02/22 04:22:13;;;;;;;76.35;31.40;;;6.60;99.90;;;;;;5056514;22;20054;-95
2023/02/22 04:24:48;;;;;;;71.95;29.08;;;6.80;99.90;;;;;;5004149;23;20137;-94
2023/02/22 04:27:17;;;;;;;59.78;29.52;;;7.00;99.90;;;;;;4996843;28;20022;-93
2023/02/22 04:29:49;;;;;;;93.55;30.45;;;7.20;99.90;;;;;;4996770;28;20030;-93
2023/02/22 04:32:17;;;;;;;74.63;29.48;;;7.10;99.90;;;;;;5014687;23;20060;-94
2023/02/22 04:34:45;;;;;;;84.60;31.65;;;7.10;99.90;;;;;;5007587;23;20045;-92
2023/02/22 04:37:14;;;;;;;74.85;32.92;;;6.50;99.90;;;;;;5018184;23;20112;-93
2023/02/22 04:42:15;;;;;;;70.32;29.25;;;6.70;99.90;;;;;;5037929;22;20057;-93
2023/02/22 04:47:21;;;;;;;64.45;30.98;;;6.60;99.90;;;;;;5040883;22;20053;-93
2023/02/22 04:49:53;;;;;;;75.00;30.27;;;6.60;99.90;;;;;;5036609;28;20030;-95
2023/02/22 04:52:25;;;;;;;74.53;30.13;;;7.20;99.90;;;;;;5036195;28;20029;-94
2023/02/22 04:54:53;;;;;;;95.70;30.52;;;6.60;99.90;;;;;;5036007;28;20380;-94
2023/02/22 04:57:19;;;;;;;90.65;31.85;;;7.40;99.90;;;;;;5043038;22;20049;-95
2023/02/22 04:59:45;;;;;;;86.68;30.65;;;7.40;99.90;;;;;;5043093;22;20103;-93
2023/02/22 05:02:11;;;;;;;68.93;29.63;;;7.20;99.90;;;;;;5035899;28;20032;-96
2023/02/22 05:04:43;;;;;;;62.60;28.92;;;7.20;99.90;;;;;;5035430;28;20481;-93
2023/02/22 05:07:12;;;;;;;62.83;28.98;;;7.30;99.90;;;;;;5035719;28;20025;-95
2023/02/22 05:09:43;;;;;;;72.18;28.95;;;7.20;99.90;;;;;;5034613;28;20465;-93
2023/02/22 05:12:12;;;;;;;81.72;29.25;;;6.50;99.90;;;;;;5035268;28;20033;-94
2023/02/22 05:14:44;;;;;;;82.95;29.38;;;7.30;99.90;;;;;;5034949;28;20112;-93
2023/02/22 05:17:15;;;;;;;91.60;27.98;;;7.20;99.90;;;;;;5035782;28;20354;-94
2023/02/22 05:19:47;;;;;;;58.50;26.02;;;7.10;99.90;;;;;;5035428;28;20036;-93
2023/02/22 05:22:16;;;;;;;61.22;27.38;;;6.50;99.90;;;;;;5035996;28;20029;-96
2023/02/22 05:24:44;;;;;;;68.72;25.70;;;7.10;99.90;;;;;;5035577;28;20014;-93
2023/02/22 05:27:12;;;;;;;73.18;27.00;;;7.80;99.90;;;;;;5034956;28;20495;-93
2023/02/22 05:29:41;;;;;;;58.40;26.77;;;6.90;99.90;;;;;;5035533;28;20029;-93
2023/02/22 05:32:13;;;;;;;66.78;27.42;;;7.10;99.90;;;;;;5035070;28;20017;-95
2023/02/22 05:34:44;;;;;;;67.38;28.77;;;6.80;99.90;;;;;;5035290;28;20108;-94
2023/02/22 05:37:19;;;;;;;80.88;28.13;;;6.50;99.90;;;;;;5035422;28;20108;-94
2023/02/22 05:39:49;;;;;;;60.78;25.55;;;5.80;99.90;;;;;;5035908;28;20089;-94
2023/02/22 05:42:22;;;;;;;60.20;27.05;;;7.70;99.90;;;;;;5048868;28;20032;-94
2023/02/22 05:44:50;;;;;;;58.55;27.83;;;7.10;99.90;;;;;;5042567;28;20034;-95
2023/02/22 05:47:16;;;;;;;80.68;27.00;;;5.50;99.90;;;;;;5054851;28;20052;-92
2023/02/22 05:49:45;;;;;;;55.25;27.67;;;6.50;99.90;;;;;;5037368;28;20021;-94
2023/02/22 05:52:13;;;;;;;59.20;27.08;;;7.30;99.90;;;;;;5035279;28;20967;-93
2023/02/22 05:54:45;;;;;;;44.88;23.83;;;6.60;99.90;;;;;;5035166;28;20033;-94
2023/02/22 05:57:11;;;;;;;46.55;23.48;;;7.70;99.90;;;;;;5035082;28;20035;-95
2023/02/22 05:59:45;;;;;;;49.63;23.80;;;7.30;99.90;;;;;;5034616;28;20049;-93
2023/02/22 06:02:12;;;;;;;55.30;26.23;;;7.00;99.90;;;;;;5034943;28;20045;-94
2023/02/22 06:04:45;;;;;;;52.15;23.13;;;6.50;99.90;;;;;;5034575;28;20021;-93
2023/02/22 06:09:52;;;;;;;52.75;25.42;;;6.60;99.90;;;;;;5040858;22;20076;-94
2023/02/22 06:12:21;;;;;;;48.40;23.95;;;7.00;99.90;;;;;;5035637;28;20044;-94
2023/02/22 06:14:47;;;;;;;45.95;23.50;;;7.10;99.90;;;;;;5034488;28;20523;-92
2023/02/22 06:17:14;;;;;;;43.90;21.80;;;6.50;99.90;;;;;;5034642;28;20029;-94
2023/02/22 06:19:49;;;;;;;45.75;24.88;;;7.10;99.90;;;;;;5033983;28;20029;-92
2023/02/22 06:22:18;;;;;;;46.83;23.90;;;7.30;99.90;;;;;;5035138;28;20435;-93
2023/02/22 06:24:47;;;;;;;52.75;25.55;;;7.00;99.90;;;;;;5034808;28;20056;-94
2023/02/22 06:27:18;;;;;;;57.05;25.08;;;7.50;99.90;;;;;;5034480;28;20484;-92
2023/02/22 06:29:53;;;;;;;57.85;25.25;;;7.10;99.90;;;;;;5035056;28;20025;-94
2023/02/22 06:32:28;;;;;;;54.35;23.60;;;6.60;99.90;;;;;;5035733;28;20033;-94
2023/02/22 06:34:56;;;;;;;46.30;24.00;;;6.90;99.90;;;;;;5034809;28;20488;-93
2023/02/22 06:37:25;;;;;;;47.30;23.00;;;7.20;99.90;;;;;;5035945;28;20109;-93
2023/02/22 06:39:59;;;;;;;44.28;24.05;;;6.50;99.90;;;;;;5033948;28;20022;-93
2023/02/22 06:42:27;;;;;;;41.90;22.30;;;6.40;99.90;;;;;;5034971;28;20033;-94
2023/02/22 06:45:02;;;;;;;50.83;23.33;;;6.60;99.90;;;;;;5034528;28;20022;-94
2023/02/22 06:47:40;;;;;;;45.40;23.15;;;6.50;99.90;;;;;;5034180;28;20038;-92
2023/02/22 06:50:10;;;;;;;51.25;23.98;;;6.50;99.90;;;;;;5036566;28;20048;-92
2023/02/22 06:52:41;;;;;;;47.47;25.10;;;6.50;99.90;;;;;;5034337;28;20021;-91
2023/02/22 06:55:09;;;;;;;51.70;25.35;;;7.20;99.90;;;;;;5038571;28;20030;-91
2023/02/22 06:57:35;;;;;;;49.78;25.10;;;7.00;99.90;;;;;;5038326;28;20139;-92
2023/02/22 07:00:16;;;;;;;53.03;25.50;;;7.70;99.90;;;;;;5039464;28;20393;-91
2023/02/22 07:02:42;;;;;;;;;;;6.60;99.90;;;;;;5041828;28;20358;-94
2023/02/22 07:05:17;;;;;;;43.80;23.13;;;7.00;99.90;;;;;;5021093;28;19972;-93
2023/02/22 07:07:42;;;;;;;45.83;23.80;;;7.20;99.90;;;;;;5040546;28;20041;-91
2023/02/22 07:10:23;;;;;;;48.97;23.83;;;6.40;99.90;;;;;;5038579;28;20025;-92
2023/02/22 07:12:51;;;;;;;53.15;26.00;;;6.50;99.90;;;;;;5039536;28;20431;-91
2023/02/22 07:15:22;;;;;;;46.53;24.40;;;7.20;99.90;;;;;;5038979;28;20072;-91
2023/02/22 07:17:49;;;;;;;48.17;23.80;;;6.90;99.90;;;;;;5037888;28;20064;-92
2023/02/22 07:20:33;;;;;;;50.63;24.83;;;6.60;99.90;;;;;;5039078;28;20029;-91
2023/02/22 07:23:05;;;;;;;45.10;24.27;;;6.70;99.90;;;;;;5020049;28;20036;-91
2023/02/22 07:25:34;;;;;;;52.47;25.40;;;6.60;99.90;;;;;;5038652;28;20040;-92
2023/02/22 07:28:05;;;;;;;47.50;25.70;;;7.60;99.90;;;;;;5047172;28;20033;-92
2023/02/22 07:30:36;;;;;;;47.25;24.95;;;6.60;99.90;;;;;;5045163;28;20033;-93
2023/02/22 07:33:07;;;;;;;48.08;26.05;;;7.50;99.90;;;;;;5056526;28;20021;-91
2023/02/22 07:35:45;;;;;;;51.85;25.00;;;7.20;99.90;;;;;;5039135;28;20634;-92
2023/02/22 07:38:12;;;;;;;49.25;25.10;;;7.00;99.90;;;;;;5037523;28;20104;-90
2023/02/22 07:40:38;;;;;;;51.42;25.67;;;7.30;99.90;;;;;;5037525;28;20523;-92
2023/02/22 07:43:16;;;;;;;46.15;24.48;;;7.20;99.90;;;;;;5037612;28;20112;-91
2023/02/22 07:45:42;;;;;;;46.33;24.50;;;6.70;99.90;;;;;;5038123;28;20033;-91
2023/02/22 07:48:08;;;;;;;49.17;24.27;;;7.20;99.90;;;;;;5039867;28;20124;-89
2023/02/22 07:50:40;;;;;;;45.60;23.65;;;7.30;99.90;;;;;;5037276;28;20496;-90
2023/02/22 07:53:18;;;;;;;46.35;24.10;;;7.30;99.90;;;;;;5036628;28;20048;-92
2023/02/22 07:55:44;;;;;;;50.08;26.02;;;7.30;99.90;;;;;;5038248;28;20100;-93
2023/02/22 07:58:14;;;;;;;45.90;25.45;;;7.30;99.90;;;;;;5037572;28;20021;-93
2023/02/22 08:00:43;;;;;;;49.25;25.23;;;6.80;99.90;;;;;;5037008;28;20042;-93
2023/02/22 08:03:23;;;;;;;53.53;25.90;;;7.20;99.90;;;;;;5036873;28;20032;-91
2023/02/22 08:05:50;;;;;;;;;;;7.30;99.90;;;;;;5036959;28;20025;-91
2023/02/22 08:08:23;;;;;;;48.38;24.33;;;6.90;99.90;;;;;;5036760;28;20356;-92
2023/02/22 08:11:01;;;;;;;45.90;23.75;;;7.10;99.90;;;;;;5037143;28;20533;-94
2023/02/22 08:13:29;;;;;;;44.95;23.08;;;7.40;99.90;;;;;;5037387;28;20820;-94
2023/02/22 08:15:55;;;;;;;49.58;24.58;;;7.40;99.90;;;;;;5037704;28;20388;-93
2023/02/22 08:18:28;;;;;;;48.95;26.30;;;7.40;99.90;;;;;;5039237;28;20022;-95
2023/02/22 08:20:56;;;;;;;51.83;26.38;;;6.90;99.90;;;;;;5036421;28;20029;-92
2023/02/22 08:23:27;;;;;;;48.70;26.77;;;7.20;99.90;;;;;;5036312;28;20075;-93
2023/02/22 08:25:53;;;;;;;49.92;24.80;;;8.00;99.90;;;;;;5039125;28;20034;-94
2023/02/22 08:28:25;;;;;;;52.92;28.35;;;7.30;99.90;;;;;;5038277;28;20484;-94
2023/02/22 08:30:54;;;;;;;59.28;28.83;;;7.50;99.90;;;;;;5036469;28;20547;-93
2023/02/22 08:33:26;;;;;;;59.95;30.25;;;8.00;99.90;;;;;;5022321;28;20029;-94
2023/02/22 08:36:00;;;;;;;52.45;28.05;;;7.40;99.90;;;;;;5036827;28;20029;-94
2023/02/22 08:38:31;;;;;;;59.45;29.85;;;7.60;99.90;;;;;;5029656;28;20028;-94
2023/02/22 08:40:57;;;;;;;55.65;28.27;;;7.90;99.90;;;;;;5029831;28;20030;-94
2023/02/22 08:43:27;;;;;;;54.17;28.17;;;6.70;99.90;;;;;;5036548;28;20365;-94
2023/02/22 08:45:59;;;;;;;53.50;26.73;;;7.90;99.90;;;;;;5036440;28;20112;-94
2023/02/22 08:48:25;;;;;;;45.63;25.25;;;7.50;99.90;;;;;;5027591;28;20125;-91
2023/02/22 08:50:50;;;;;;;50.47;27.20;;;7.50;99.90;;;;;;5021488;28;20037;-93
2023/02/22 08:53:22;;;;;;;47.80;26.95;;;7.60;99.90;;;;;;5027998;28;20040;-94
2023/02/22 08:55:53;;;;;;;50.90;26.73;;;7.50;99.90;;;;;;5025736;28;20026;-93
2023/02/22 08:58:19;;;;;;;44.58;24.98;;;7.10;99.90;;;;;;5030680;28;20018;-94
2023/02/22 09:00:56;;;;;;;48.63;25.70;;;7.10;99.90;;;;;;5033170;28;20492;-93
2023/02/22 09:03:31;;;;;;;48.88;26.65;;;7.10;99.90;;;;;;5030305;28;20034;-94
2023/02/22 09:05:58;;;;;;;46.65;25.83;;;7.60;99.90;;;;;;5026078;28;20029;-93
2023/02/22 09:08:34;;;;;;;44.13;24.58;;;7.50;99.90;;;;;;5023063;28;20076;-93
2023/02/22 09:11:06;;;;;;;45.28;25.65;;;7.00;99.90;;;;;;5027597;28;20195;-93
2023/02/22 09:13:31;;;;;;;44.75;24.20;;;7.40;99.90;;;;;;5032756;28;20062;-93
2023/02/22 09:15:57;;;;;;;38.63;22.73;;;7.20;99.90;;;;;;5058460;22;20029;-94
2023/02/22 09:20:59;;;;;;;44.75;23.05;;;7.20;99.90;;;;;;5037263;28;20373;-91
2023/02/22 09:41:03;;;;;;;40.72;23.73;;;7.40;99.90;;;;;;5018593;28;20060;-94
2023/02/22 09:43:56;;;;;;;42.20;23.38;;;7.60;99.90;;;;;;5002822;28;20073;-94
2023/02/22 09:49:56;;;;;;;41.28;23.80;;;7.70;99.90;;;;;;5878079;22;20037;-91
2023/02/22 09:52:35;;;;;;;39.58;22.75;;;7.40;99.90;;;;;;5039771;28;20025;-95
2023/02/22 09:55:29;;;;;;;37.72;23.67;;;7.60;99.90;;;;;;5054727;22;20050;-92
2023/02/22 10:00:50;;;;;;;41.67;24.10;;;8.00;99.90;;;;;;5035097;28;20061;-94
2023/02/22 10:09:15;;;;;;;44.10;25.63;;;7.70;99.90;;;;;;5025973;28;20064;-93
2023/02/22 10:12:48;;;;;;;39.15;24.02;;;8.30;99.90;;;;;;5026320;28;20397;-93
2023/02/22 10:15:48;;;;;;;39.28;23.15;;;7.80;99.90;;;;;;5036917;22;20053;-94
2023/02/22 10:21:17;;;;;;;35.25;20.95;;;7.90;99.90;;;;;;5506164;22;20053;-93
2023/02/22 10:24:46;;;;;;;40.92;22.13;;;7.90;99.90;;;;;;5037407;28;20026;-96
2023/02/22 10:42:04;;;;;;;34.78;20.33;;;8.20;99.90;;;;;;5124300;22;20393;-94
2023/02/22 10:44:34;;;;;;;35.00;21.77;;;8.80;99.90;;;;;;5126239;22;20408;-95
2023/02/22 10:49:56;;;;;;;36.30;21.42;;;8.40;99.90;;;;;;5150379;22;20049;-94
2023/02/22 10:52:32;;;;;;;34.35;21.27;;;7.80;99.90;;;;;;5026280;28;20034;-93
2023/02/22 10:55:03;;;;;;;36.33;21.48;;;8.90;99.90;;;;;;5050086;28;20022;-94
2023/02/22 11:06:38;;;;;;;36.92;22.70;;;8.40;99.90;;;;;;4953596;29;20054;-94
2023/02/22 11:09:14;;;;;;;32.85;20.67;;;8.50;99.90;;;;;;4955337;29;20510;-95
2023/02/22 11:12:07;;;;;;;35.55;21.02;;;9.10;99.90;;;;;;4973653;28;20042;-95
2023/02/22 11:20:47;;;;;;;33.05;21.40;;;8.60;99.90;;;;;;5090934;22;20105;-94
2023/02/22 11:23:44;;;;;;;33.00;21.95;;;9.10;99.90;;;;;;5031967;28;20038;-95
2023/02/22 11:26:19;;;;;;;37.88;21.10;;;8.60;99.90;;;;;;5033016;28;20060;-95
2023/02/22 11:28:49;;;;;;;40.75;20.50;;;8.60;99.90;;;;;;5029677;28;20104;-94
2023/02/22 11:31:25;;;;;;;36.97;20.73;;;8.60;99.90;;;;;;5029624;28;20022;-96
2023/02/22 11:34:00;;;;;;;37.47;22.27;;;9.00;99.90;;;;;;5020291;28;20040;-95
2023/02/22 11:42:27;;;;;;;32.70;22.23;;;8.70;99.90;;;;;;5042164;22;20530;-93
2023/02/22 11:45:59;;;;;;;39.25;20.27;;;9.00;99.90;;;;;;5033769;28;20492;-93
2023/02/22 11:49:07;;;;;;;39.67;20.88;;;8.80;99.90;;;;;;5067395;22;20059;-91
2023/02/22 11:55:20;;;;;;;35.55;20.83;;;8.30;99.90;;;;;;4931091;28;20092;-91
2023/02/22 11:58:13;;;;;;;;;;;;;;;;;;;;;
2023/02/22 12:01:24;;;;;;;31.65;20.20;;;9.40;99.90;;;;;;4991751;22;20046;-94
2023/02/22 12:04:34;;;;;;;26.77;18.17;;;8.90;99.90;;;;;;5020189;28;20482;-93
2023/02/22 12:07:24;;;;;;;31.88;20.27;;;8.90;99.90;;;;;;5023577;28;20477;-92
2023/02/22 12:10:17;;;;;;;30.77;19.07;;;9.40;99.90;;;;;;5023135;28;20330;-95
2023/02/22 12:13:01;;;;;;;31.15;20.35;;;8.90;99.90;;;;;;5014244;28;20109;-93
2023/02/22 12:15:41;;;;;;;34.13;19.75;;;9.60;99.90;;;;;;5036224;23;20060;-93
2023/02/22 12:18:13;;;;;;;29.38;19.50;;;8.90;99.90;;;;;;5031417;28;20033;-93
2023/02/22 12:20:52;;;;;;;31.70;20.27;;;9.00;99.90;;;;;;5035250;28;20041;-93
2023/02/22 12:23:29;;;;;;;33.88;20.27;;;9.00;99.90;;;;;;5035709;28;20037;-91
2023/02/22 12:26:29;;;;;;;28.90;19.58;;;9.60;99.90;;;;;;5035583;28;20026;-93
2023/02/22 12:29:04;;;;;;;27.75;19.80;;;9.10;99.90;;;;;;4972652;28;20113;-94
2023/02/22 12:31:53;;;;;;;33.75;20.52;;;8.80;99.90;;;;;;4977804;28;20395;-93
2023/02/22 12:34:34;;;;;;;33.55;20.77;;;9.90;99.90;;;;;;5036850;28;20480;-93
2023/02/22 12:37:38;;;;;;;29.95;19.83;;;9.20;99.90;;;;;;5033981;28;20021;-94
2023/02/22 12:40:25;;;;;;;30.58;19.17;;;9.20;99.90;;;;;;4918537;29;20116;-93
2023/02/22 12:43:12;;;;;;;34.67;20.55;;;9.30;99.90;;;;;;4919383;29;20044;-95
2023/02/22 12:45:55;;;;;;;25.23;19.25;;;9.30;99.90;;;;;;4918560;29;20028;-94
2023/02/22 12:51:58;;;;;;;28.65;19.05;;;9.40;99.90;;;;;;5036512;28;20211;-94
2023/02/22 12:54:55;;;;;;;33.35;20.45;;;9.40;99.90;;;;;;5031223;28;20104;-92
2023/02/22 12:57:29;;;;;;;31.15;19.23;;;9.40;99.90;;;;;;4955625;29;20038;-93
2023/02/22 13:00:25;;;;;;;26.63;18.45;;;10.20;99.90;;;;;;5037193;28;20044;-92
2023/02/22 13:03:24;;;;;;;27.85;18.85;;;9.80;99.90;;;;;;5034238;28;20037;-92
2023/02/22 13:06:25;;;;;;;27.33;19.30;;;9.50;99.90;;;;;;5035249;28;20025;-92
2023/02/22 13:09:12;;;;;;;27.27;17.77;;;9.50;99.90;;;;;;5010129;28;20034;-91
2023/02/22 13:12:05;;;;;;;29.95;19.15;;;9.50;99.90;;;;;;5034993;28;20028;-94
2023/02/22 13:15:09;;;;;;;27.25;19.02;;;9.40;99.90;;;;;;5034745;28;20075;-92
2023/02/22 13:18:38;;;;;;;32.55;19.95;;;9.50;99.90;;;;;;5013789;28;20033;-90
2023/02/22 13:43:33;;;;;;;29.33;20.55;;;9.30;99.90;;;;;;5304816;23;20598;-92
2023/02/22 13:46:35;;;;;;;28.42;20.45;;;9.40;99.90;;;;;;5031663;28;20112;-92
2023/02/22 14:08:38;;;;;;;32.72;22.00;;;9.50;99.90;;;;;;4083357;22;20056;-89
2023/02/22 14:11:56;;;;;;;;;;;;;;;;;;;;;
2023/02/22 14:15:11;;;;;;;32.38;21.25;;;9.60;99.90;;;;;;4980202;28;20035;-89
2023/02/22 14:24:11;;;;;;;37.13;23.25;;;9.70;99.90;;;;;;5355337;22;20406;-91
2023/02/22 14:27:31;;;;;;;36.05;22.85;;;9.60;99.90;;;;;;5009317;22;20250;-90
2023/02/22 14:30:46;;;;;;;33.65;22.83;;;9.70;99.90;;;;;;5011729;28;20034;-89
2023/02/22 14:38:40;;;;;;;38.95;23.40;;;9.70;99.90;;;;;;5039983;22;20057;-92
2023/02/22 14:48:57;;;;;;;35.90;24.45;;;9.70;99.90;;;;;;5040596;23;20042;-93
2023/02/22 14:51:52;;;;;;;36.50;24.30;;;10.30;99.90;;;;;;5034698;28;20054;-93
2023/02/22 14:54:27;;;;;;;34.60;23.98;;;9.60;99.90;;;;;;5034451;28;20049;-93
2023/02/22 14:57:23;;;;;;;36.17;24.27;;;10.20;99.90;;;;;;5035583;28;20385;-95
2023/02/22 15:06:24;;;;;;;40.20;25.30;;;10.40;99.90;;;;;;5006684;28;20500;-93
2023/02/22 15:09:24;;;;;;;37.83;25.77;;;9.80;99.90;;;;;;5180253;22;20077;-91
2023/02/22 15:12:20;;;;;;;43.45;26.10;;;10.40;99.90;;;;;;5033338;28;20124;-92
2023/02/22 15:17:55;;;;;;;42.88;25.90;;;9.60;99.90;;;;;;5044429;22;20057;-91
2023/02/22 15:20:23;;;;;;;35.63;25.52;;;10.00;99.90;;;;;;5035163;28;20033;-90
2023/02/22 15:22:59;;;;;;;42.50;26.73;;;9.70;99.90;;;;;;5036405;28;20026;-91
2023/02/22 15:25:27;;;;;;;43.65;27.50;;;10.30;99.90;;;;;;5036258;28;20026;-90
2023/02/22 15:28:00;;;;;;;41.60;28.35;;;9.70;99.90;;;;;;5036394;28;20488;-91
2023/02/22 15:30:29;;;;;;;44.95;27.80;;;9.60;99.90;;;;;;5037067;28;20030;-91
2023/02/22 15:32:57;;;;;;;44.45;28.55;;;9.40;99.90;;;;;;5036923;28;20128;-92
2023/02/22 15:35:32;;;;;;;43.05;27.75;;;9.80;99.90;;;;;;5036699;28;20033;-94
2023/02/22 15:38:10;;;;;;;43.63;28.77;;;10.20;99.90;;;;;;5036186;28;20136;-92
2023/02/22 15:40:44;;;;;;;46.90;30.27;;;9.40;99.90;;;;;;5035611;28;20049;-92
2023/02/22 15:46:39;;;;;;;47.05;31.85;;;11.00;99.90;;;;;;4974697;28;20117;-93
2023/02/22 15:49:19;;;;;;;51.08;34.35;;;10.00;99.90;;;;;;5029468;28;20117;-90
2023/02/22 15:51:50;;;;;;;54.92;35.90;;;9.60;99.90;;;;;;5036699;28;20025;-95
2023/02/22 15:54:16;;;;;;;52.33;36.35;;;9.60;99.90;;;;;;5035816;28;20111;-92
2023/02/22 15:56:54;;;;;;;54.63;36.63;;;10.10;99.90;;;;;;5034769;28;20484;-92
2023/02/22 15:59:21;;;;;;;53.10;35.58;;;10.10;99.90;;;;;;5034586;28;20030;-91
2023/02/22 16:01:50;;;;;;;53.65;37.30;;;10.10;99.90;;;;;;5035073;28;20033;-91
2023/02/22 16:04:22;;;;;;;51.53;35.97;;;10.00;99.90;;;;;;5034933;28;20022;-92
2023/02/22 16:06:50;;;;;;;59.25;38.70;;;9.80;99.90;;;;;;5035127;28;20477;-92
2023/02/22 16:09:24;;;;;;;57.63;38.63;;;10.10;99.90;;;;;;5034927;28;20062;-93
2023/02/22 16:12:15;;;;;;;59.83;40.17;;;9.50;99.90;;;;;;5034958;28;20087;-91
2023/02/22 16:14:44;;;;;;;58.83;40.25;;;9.60;99.90;;;;;;5035116;28;20029;-91
2023/02/22 16:17:48;;;;;;;64.28;41.80;;;10.10;99.90;;;;;;4995970;28;1139452;-91
2023/02/22 16:20:25;;;;;;;68.50;42.83;;;10.80;99.90;;;;;;4976137;28;20035;-92